EGGD/BRS METAR and TAF weather

Enter ICAO airport designator
Station Type Date Time Source
EGGD METAR 2019/12/07 09:50 UTC NOAA

EGGD 070950Z AUTO 24008KT 9999 SCT010 BKN030 08/06 Q1014


Station Type Date Time Source
EGGD Decoded METAR 2019/12/07 09:50 UTC NOAA

Bristol / Lulsgate , United Kingdom (EGGD) 51-23N 002-43W
Dec 07, 2019 - 04:50 AM EST / 2019.12.07 0950 UTC
Wind: from the WSW (240 degrees) at 9 MPH (8 KT):0
Visibility: greater than 7 mile(s):0
Sky conditions: mostly cloudy
Temperature: 46 F (8 C)
Dew Point: 42 F (6 C)
Relative Humidity: 87%
Pressure (altimeter): 29.94 in. Hg (1014 hPa)
ob: EGGD 070950Z AUTO 24008KT 9999 SCT010 BKN030 08/06 Q1014
cycle: 10

Station Type Date Time Source
EGGD TAF 2019/12/07 08:54 UTC NOAA

TAF
AMD TAF
AMD EGGD 070850Z 0708/0806 22008KT 9999 SCT020 PROB30
TEMPO 0708/0717 4000 -DZ BKN009
BECMG 0717/0720 20016G26KT BKN009
TEMPO 0720/0804 21020G36KT
TEMPO 0723/0804 6000 RA PROB30
TEMPO 0723/0802 3000 +RA BKN004
BECMG 0802/0805 26014KT
TEMPO 0802/0805 27017G27KT PROB30
TEMPO 0802/0804 BKN004

Example: see airport list